createdAt,value
2018-06-10T00:00:32.491Z,0.00
2018-06-10T00:01:32.693Z,0.00
2018-06-10T00:02:32.890Z,0.00
2018-06-10T00:03:33.074Z,0.00
2018-06-10T00:04:33.265Z,0.00
2018-06-10T00:05:33.475Z,0.00
2018-06-10T00:08:05.586Z,0.00
2018-06-10T00:09:05.765Z,0.00
2018-06-10T00:10:05.985Z,0.00
2018-06-10T00:11:06.196Z,0.00
2018-06-10T00:12:06.381Z,0.00
2018-06-10T00:13:06.574Z,0.00
2018-06-10T00:14:06.786Z,0.00
2018-06-10T00:15:06.998Z,0.00
2018-06-10T00:16:07.213Z,0.00
2018-06-10T00:17:07.425Z,0.00
2018-06-10T00:18:07.615Z,0.00
2018-06-10T00:19:07.800Z,0.00
2018-06-10T00:20:07.997Z,0.00
2018-06-10T00:21:08.210Z,0.00
2018-06-10T00:22:08.407Z,0.00
2018-06-10T00:23:08.616Z,0.00
2018-06-10T00:24:08.830Z,0.00
2018-06-10T00:25:09.034Z,0.00
2018-06-10T00:26:09.220Z,0.00
2018-06-10T00:27:09.407Z,0.00
2018-06-10T00:28:09.628Z,0.00
2018-06-10T00:29:09.826Z,0.00
2018-06-10T00:30:10.039Z,0.00
2018-06-10T00:31:10.221Z,0.00
2018-06-10T00:32:10.405Z,0.00
2018-06-10T00:33:10.616Z,0.00
2018-06-10T00:34:10.812Z,0.00
2018-06-10T00:35:11.007Z,0.00
2018-06-10T00:36:11.225Z,0.00
2018-06-10T00:37:11.425Z,0.00
2018-06-10T00:38:11.637Z,0.00
2018-06-10T00:39:11.849Z,0.00
2018-06-10T00:40:12.084Z,0.00
2018-06-10T00:41:12.379Z,0.00
2018-06-10T00:42:12.453Z,0.00
2018-06-10T00:43:12.666Z,0.00
2018-06-10T00:44:12.852Z,0.00
2018-06-10T00:45:13.055Z,0.00
2018-06-10T00:46:13.241Z,0.00
2018-06-10T00:47:13.437Z,0.00
2018-06-10T00:48:13.636Z,0.00
2018-06-10T00:49:13.827Z,0.00
2018-06-10T00:50:14.036Z,0.00
2018-06-10T00:51:14.261Z,0.00
2018-06-10T00:52:14.468Z,0.00
2018-06-10T00:53:14.690Z,0.00
2018-06-10T00:54:14.876Z,0.00
2018-06-10T00:55:15.090Z,0.00
2018-06-10T00:56:15.290Z,0.00
2018-06-10T00:57:15.485Z,0.00
2018-06-10T00:58:15.750Z,0.00
2018-06-10T00:59:15.816Z,0.00
2018-06-10T01:00:16.027Z,0.00
2018-06-10T01:01:16.221Z,0.00
2018-06-10T01:02:16.422Z,0.00
2018-06-10T01:03:16.604Z,0.00
2018-06-10T01:04:16.797Z,0.00
2018-06-10T01:05:16.998Z,0.00
2018-06-10T01:06:17.183Z,0.00
2018-06-10T01:07:17.374Z,0.00
2018-06-10T01:08:17.566Z,0.00
2018-06-10T01:09:17.786Z,0.00
2018-06-10T01:10:17.986Z,0.00
2018-06-10T01:11:18.183Z,0.00
2018-06-10T01:12:18.369Z,0.00
2018-06-10T01:13:18.564Z,0.00
2018-06-10T01:14:18.766Z,0.00
2018-06-10T01:15:18.974Z,0.00
2018-06-10T01:16:19.165Z,0.00
2018-06-10T01:17:19.362Z,0.00
2018-06-10T01:18:19.569Z,0.00
2018-06-10T01:19:19.803Z,0.00
2018-06-10T01:20:19.986Z,0.00
2018-06-10T01:21:20.176Z,0.00
2018-06-10T01:22:20.387Z,0.00
2018-06-10T01:23:20.580Z,0.00
2018-06-10T01:24:20.775Z,0.00
2018-06-10T01:25:20.961Z,0.00
2018-06-10T01:26:21.172Z,0.00
2018-06-10T01:27:21.364Z,0.00
2018-06-10T01:28:21.561Z,0.00
2018-06-10T01:29:21.774Z,0.00
2018-06-10T01:30:21.965Z,0.00
2018-06-10T01:31:22.161Z,0.00
2018-06-10T01:32:22.349Z,0.00
2018-06-10T01:33:22.544Z,0.00
2018-06-10T01:34:22.751Z,0.00
2018-06-10T01:35:22.959Z,0.00
2018-06-10T01:36:23.148Z,0.00
2018-06-10T01:37:23.432Z,0.00
2018-06-10T01:38:23.517Z,0.00
2018-06-10T01:39:23.725Z,0.00
2018-06-10T01:40:23.937Z,0.00
2018-06-10T01:41:24.148Z,0.00
2018-06-10T01:42:24.348Z,0.00
2018-06-10T01:43:24.549Z,0.00
2018-06-10T01:44:24.755Z,0.00
2018-06-10T01:45:24.953Z,0.00
2018-06-10T01:46:25.162Z,0.00
2018-06-10T01:47:25.392Z,0.00
2018-06-10T01:48:25.597Z,0.00
2018-06-10T01:49:25.796Z,0.00
2018-06-10T01:50:26.004Z,0.00
2018-06-10T01:51:26.217Z,0.00
2018-06-10T01:52:26.423Z,0.00
2018-06-10T01:53:26.621Z,0.00
2018-06-10T01:54:26.836Z,0.00
2018-06-10T01:55:27.038Z,0.00
2018-06-10T01:56:27.250Z,0.00
2018-06-10T01:58:59.362Z,0.00
2018-06-10T01:59:59.543Z,0.00
2018-06-10T02:00:59.753Z,0.00
2018-06-10T02:01:59.948Z,0.00
2018-06-10T02:03:00.135Z,0.00
2018-06-10T02:04:00.349Z,0.00
2018-06-10T02:05:00.549Z,0.00
2018-06-10T02:06:00.744Z,0.00
2018-06-10T02:07:00.933Z,0.00
2018-06-10T02:08:01.146Z,0.00
2018-06-10T02:09:01.368Z,0.00
2018-06-10T02:10:01.580Z,0.00
2018-06-10T02:12:33.673Z,0.00
2018-06-10T02:13:33.847Z,0.00
2018-06-10T02:14:34.056Z,0.00
2018-06-10T02:15:34.246Z,0.00
2018-06-10T02:16:34.461Z,0.00
2018-06-10T02:17:34.648Z,0.00
2018-06-10T02:18:34.859Z,0.00
2018-06-10T02:19:35.069Z,0.00
2018-06-10T02:20:35.277Z,0.00
2018-06-10T02:21:35.485Z,0.00
2018-06-10T02:24:07.575Z,0.00
2018-06-10T02:25:07.778Z,0.00
2018-06-10T02:26:07.983Z,0.00
2018-06-10T02:27:08.192Z,0.00
2018-06-10T02:28:08.391Z,0.00
2018-06-10T02:29:08.599Z,0.00
2018-06-10T02:30:08.800Z,0.00
2018-06-10T02:31:09.007Z,0.00
2018-06-10T02:32:09.223Z,0.00
2018-06-10T02:33:09.418Z,0.00
2018-06-10T02:34:09.609Z,0.00
2018-06-10T02:35:09.828Z,0.00
2018-06-10T02:36:10.078Z,0.00
2018-06-10T02:37:10.291Z,0.00
2018-06-10T02:38:10.499Z,0.00
2018-06-10T02:39:10.693Z,0.00
2018-06-10T02:40:10.905Z,0.00
2018-06-10T02:41:11.109Z,0.00
2018-06-10T02:42:11.304Z,0.00
2018-06-10T02:43:11.498Z,0.00
2018-06-10T02:44:11.702Z,0.00
2018-06-10T02:45:11.914Z,0.00
2018-06-10T02:46:12.103Z,0.00
2018-06-10T02:47:12.295Z,0.00
2018-06-10T02:49:44.610Z,0.00
2018-06-10T02:50:44.784Z,0.00
2018-06-10T02:51:44.983Z,0.00
2018-06-10T02:52:45.194Z,0.00
2018-06-10T02:53:45.477Z,0.00
2018-06-10T02:54:45.614Z,0.00
2018-06-10T02:55:45.824Z,0.00
2018-06-10T02:56:46.039Z,0.00
2018-06-10T02:57:46.251Z,0.00
2018-06-10T02:58:46.438Z,0.00
2018-06-10T02:59:46.640Z,0.00
2018-06-10T03:00:46.834Z,0.00
2018-06-10T03:01:47.043Z,0.00
2018-06-10T03:02:47.239Z,0.00
2018-06-10T03:03:47.446Z,0.00
2018-06-10T03:04:47.658Z,0.00
2018-06-10T03:05:47.843Z,0.00
2018-06-10T03:06:48.038Z,0.00
2018-06-10T03:07:48.236Z,0.00
2018-06-10T03:08:48.418Z,5.63
2018-06-10T03:09:48.622Z,5.63
2018-06-10T03:10:48.814Z,5.63
2018-06-10T03:13:20.940Z,5.63
2018-06-10T03:14:21.114Z,5.63
2018-06-10T03:15:21.328Z,5.63
2018-06-10T03:16:21.539Z,5.63
2018-06-10T03:17:21.729Z,11.25
2018-06-10T03:18:21.947Z,11.25
2018-06-10T03:19:22.154Z,11.25
2018-06-10T03:20:22.353Z,11.25
2018-06-10T03:21:22.572Z,16.88
2018-06-10T03:22:22.777Z,16.88
2018-06-10T03:23:22.958Z,16.88
2018-06-10T03:24:23.146Z,16.88
2018-06-10T03:25:23.349Z,16.88
2018-06-10T03:26:23.543Z,22.50
2018-06-10T03:27:23.755Z,22.50
2018-06-10T03:28:23.941Z,22.50
2018-06-10T03:29:24.129Z,22.50
2018-06-10T03:30:24.321Z,22.50
2018-06-10T03:31:24.507Z,28.13
2018-06-10T03:32:24.722Z,28.13
2018-06-10T03:33:24.902Z,33.75
2018-06-10T03:34:25.094Z,33.75
2018-06-10T03:35:25.300Z,39.38
2018-06-10T03:36:25.510Z,39.38
2018-06-10T03:37:25.724Z,39.38
2018-06-10T03:38:25.931Z,39.38
2018-06-10T03:39:26.124Z,39.38
2018-06-10T03:40:26.334Z,39.38
2018-06-10T03:42:58.432Z,45.00
2018-06-10T03:43:58.616Z,45.00
2018-06-10T03:44:58.825Z,45.00
2018-06-10T03:45:59.021Z,45.00
2018-06-10T03:46:59.224Z,39.38
2018-06-10T03:47:59.411Z,39.38
2018-06-10T03:48:59.613Z,39.38
2018-06-10T03:49:59.826Z,39.38
2018-06-10T03:51:00.032Z,39.38
2018-06-10T03:52:00.236Z,39.38
2018-06-10T03:53:00.433Z,39.38
2018-06-10T03:54:00.644Z,39.38
2018-06-10T03:55:00.858Z,45.00
2018-06-10T03:56:01.066Z,45.00
2018-06-10T03:57:01.262Z,45.00
2018-06-10T03:58:01.481Z,45.00
2018-06-10T03:59:01.672Z,45.00
2018-06-10T04:00:01.877Z,45.00
2018-06-10T04:01:02.098Z,45.00
2018-06-10T04:02:02.306Z,50.63
2018-06-10T04:04:34.401Z,50.63
2018-06-10T04:05:34.580Z,56.25
2018-06-10T04:06:34.776Z,56.25
2018-06-10T04:07:34.991Z,56.25
2018-06-10T04:08:35.184Z,56.25
2018-06-10T04:09:35.395Z,56.25
2018-06-10T04:10:35.583Z,56.25
2018-06-10T04:11:35.792Z,61.88
2018-06-10T04:12:35.997Z,61.88
2018-06-10T04:13:36.202Z,61.88
2018-06-10T04:14:36.407Z,61.88
2018-06-10T04:15:36.613Z,61.88
2018-06-10T04:16:36.833Z,61.88
2018-06-10T04:17:37.056Z,61.88
2018-06-10T04:18:37.270Z,61.88
2018-06-10T04:19:37.493Z,61.88
2018-06-10T04:20:37.700Z,61.88
2018-06-10T04:21:37.903Z,67.50
2018-06-10T04:22:38.160Z,67.50
2018-06-10T04:23:38.300Z,67.50
2018-06-10T04:24:38.500Z,73.13
2018-06-10T04:25:38.713Z,73.13
2018-06-10T04:26:38.915Z,73.13
2018-06-10T04:27:39.118Z,78.75
2018-06-10T04:28:39.322Z,78.75
2018-06-10T04:29:39.519Z,78.75
2018-06-10T04:30:39.735Z,84.38
2018-06-10T04:33:11.558Z,90.00
2018-06-10T04:34:11.732Z,95.63
2018-06-10T04:35:11.938Z,95.63
2018-06-10T04:36:12.146Z,101.25
2018-06-10T04:37:12.360Z,101.25
2018-06-10T04:38:12.554Z,101.25
2018-06-10T04:39:12.769Z,101.25
2018-06-10T04:40:12.966Z,101.25
2018-06-10T04:41:13.253Z,101.25
2018-06-10T04:42:13.330Z,106.88
2018-06-10T04:43:13.533Z,112.50
2018-06-10T04:44:13.730Z,118.13
2018-06-10T04:45:13.934Z,118.13
2018-06-10T04:46:14.124Z,123.75
2018-06-10T04:47:14.380Z,129.38
2018-06-10T04:48:14.529Z,129.38
2018-06-10T04:49:14.721Z,129.38
2018-06-10T04:50:14.924Z,129.38
2018-06-10T04:51:15.118Z,129.38
2018-06-10T04:52:15.335Z,129.38
2018-06-10T04:53:15.526Z,135.00
2018-06-10T04:54:15.734Z,135.00
2018-06-10T04:55:15.936Z,129.38
2018-06-10T04:56:16.129Z,129.38
2018-06-10T04:57:16.344Z,129.38
2018-06-10T04:58:16.535Z,129.38
2018-06-10T04:59:16.728Z,135.00
2018-06-10T05:00:16.916Z,140.63
2018-06-10T05:01:17.114Z,146.25
2018-06-10T05:02:17.313Z,157.50
2018-06-10T05:03:17.511Z,163.13
2018-06-10T05:04:17.707Z,174.38
2018-06-10T05:05:17.897Z,180.00
2018-06-10T05:06:18.114Z,185.63
2018-06-10T05:07:18.321Z,191.25
2018-06-10T05:08:18.532Z,191.25
2018-06-10T05:09:18.748Z,185.63
2018-06-10T05:10:18.941Z,185.63
2018-06-10T05:11:19.156Z,180.00
2018-06-10T05:12:19.349Z,174.38
2018-06-10T05:13:19.566Z,174.38
2018-06-10T05:14:19.770Z,180.00
2018-06-10T05:15:19.976Z,174.38
2018-06-10T05:16:20.162Z,174.38
2018-06-10T05:18:52.266Z,168.75
2018-06-10T05:19:52.574Z,163.13
2018-06-10T05:20:52.669Z,163.13
2018-06-10T05:21:52.855Z,157.50
2018-06-10T05:22:53.047Z,151.88
2018-06-10T05:23:53.258Z,146.25
2018-06-10T05:24:53.451Z,140.63
2018-06-10T05:25:53.641Z,135.00
2018-06-10T05:26:53.841Z,135.00
2018-06-10T05:27:54.052Z,129.38
2018-06-10T05:28:54.255Z,129.38
2018-06-10T05:29:54.464Z,129.38
2018-06-10T05:30:54.676Z,123.75
2018-06-10T05:31:54.865Z,123.75
2018-06-10T05:32:55.061Z,123.75
2018-06-10T05:33:55.255Z,123.75
2018-06-10T05:34:55.479Z,118.13
2018-06-10T05:35:55.688Z,118.13
2018-06-10T05:36:55.873Z,118.13
2018-06-10T05:37:56.090Z,118.13
2018-06-10T05:38:56.301Z,123.75
2018-06-10T05:39:56.495Z,123.75
2018-06-10T05:40:56.688Z,123.75
2018-06-10T05:41:56.896Z,123.75
2018-06-10T05:42:57.106Z,123.75
2018-06-10T05:43:57.294Z,123.75
2018-06-10T05:44:57.598Z,123.75
2018-06-10T05:45:57.677Z,129.38
2018-06-10T05:46:57.884Z,129.38
2018-06-10T05:47:58.094Z,129.38
2018-06-10T05:48:58.305Z,129.38
2018-06-10T05:49:58.493Z,135.00
2018-06-10T05:50:58.685Z,135.00
2018-06-10T05:51:58.876Z,135.00
2018-06-10T05:54:30.691Z,140.63
2018-06-10T05:55:30.875Z,140.63
2018-06-10T05:56:31.084Z,140.63
2018-06-10T05:57:31.288Z,146.25
2018-06-10T05:58:31.493Z,146.25
2018-06-10T05:59:31.697Z,146.25
2018-06-10T06:00:31.973Z,151.88
2018-06-10T06:01:32.038Z,151.88
2018-06-10T06:02:32.238Z,157.50
2018-06-10T06:03:32.432Z,163.13
2018-06-10T06:04:32.642Z,163.13
2018-06-10T06:05:32.831Z,168.75
2018-06-10T06:06:33.055Z,174.38
2018-06-10T06:07:33.255Z,180.00
2018-06-10T06:08:33.474Z,185.63
2018-06-10T06:09:33.687Z,191.25
2018-06-10T06:10:33.896Z,196.88
2018-06-10T06:11:34.093Z,196.88
2018-06-10T06:12:34.305Z,202.50
2018-06-10T06:13:34.525Z,208.13
2018-06-10T06:14:34.714Z,213.75
2018-06-10T06:15:34.898Z,219.38
2018-06-10T06:16:35.121Z,219.38
2018-06-10T06:17:35.322Z,219.38
2018-06-10T06:18:35.535Z,225.00
2018-06-10T06:19:35.754Z,219.38
2018-06-10T06:20:35.947Z,219.38
2018-06-10T06:21:36.143Z,225.00
2018-06-10T06:22:36.371Z,225.00
2018-06-10T06:23:36.531Z,225.00
2018-06-10T06:24:36.724Z,230.63
2018-06-10T06:25:36.918Z,236.25
2018-06-10T06:26:37.108Z,241.88
2018-06-10T06:27:37.311Z,247.50
2018-06-10T06:28:37.495Z,247.50
2018-06-10T06:31:09.594Z,258.75
2018-06-10T06:32:09.900Z,270.00
2018-06-10T06:33:09.985Z,270.00
2018-06-10T06:34:10.175Z,275.63
2018-06-10T06:35:10.364Z,281.25
2018-06-10T06:36:10.581Z,281.25
2018-06-10T06:37:10.780Z,286.88
2018-06-10T06:38:10.984Z,292.50
2018-06-10T06:39:11.186Z,292.50
2018-06-10T06:40:11.389Z,298.13
2018-06-10T06:41:11.584Z,298.13
2018-06-10T06:42:11.782Z,298.13
2018-06-10T06:43:12.006Z,298.13
2018-06-10T06:44:12.217Z,298.13
2018-06-10T06:45:12.430Z,303.75
2018-06-10T06:46:12.648Z,303.75
2018-06-10T06:47:12.900Z,303.75
2018-06-10T06:48:13.060Z,303.75
2018-06-10T06:49:13.252Z,309.38
2018-06-10T06:50:13.509Z,315.00
2018-06-10T06:51:13.698Z,320.63
2018-06-10T06:52:13.900Z,331.88
2018-06-10T06:53:14.110Z,343.13
2018-06-10T06:54:14.310Z,354.38
2018-06-10T06:55:14.523Z,365.63
2018-06-10T06:56:14.734Z,382.50
2018-06-10T06:57:14.928Z,399.38
2018-06-10T06:58:15.184Z,410.63
2018-06-10T06:59:15.286Z,433.13
2018-06-10T07:00:15.487Z,450.00
2018-06-10T07:01:15.697Z,472.50
2018-06-10T07:02:15.912Z,500.63
2018-06-10T07:03:16.134Z,523.13
2018-06-10T07:04:16.379Z,551.25
2018-06-10T07:05:16.521Z,585.00
2018-06-10T07:06:16.714Z,613.13
2018-06-10T07:07:16.904Z,635.63
2018-06-10T07:08:17.110Z,646.88
2018-06-10T07:09:17.325Z,663.75
2018-06-10T07:11:49.451Z,641.25
2018-06-10T07:12:49.628Z,618.75
2018-06-10T07:13:49.844Z,596.25
2018-06-10T07:14:50.060Z,579.38
2018-06-10T07:15:50.247Z,573.75
2018-06-10T07:16:50.461Z,585.00
2018-06-10T07:17:50.654Z,601.88
2018-06-10T07:18:50.865Z,613.13
2018-06-10T07:19:51.078Z,624.38
2018-06-10T07:20:51.277Z,641.25
2018-06-10T07:21:51.483Z,630.00
2018-06-10T07:22:51.695Z,624.38
2018-06-10T07:23:51.904Z,624.38
2018-06-10T07:24:52.095Z,618.75
2018-06-10T07:25:52.287Z,613.13
2018-06-10T07:26:52.489Z,613.13
2018-06-10T07:27:52.704Z,601.88
2018-06-10T07:28:52.914Z,601.88
2018-06-10T07:29:53.143Z,613.13
2018-06-10T07:30:53.347Z,618.75
2018-06-10T07:31:53.561Z,630.00
2018-06-10T07:32:53.754Z,646.88
2018-06-10T07:35:25.928Z,697.50
2018-06-10T07:36:25.984Z,720.00
2018-06-10T07:37:26.172Z,748.13
2018-06-10T07:38:26.386Z,781.88
2018-06-10T07:39:26.607Z,815.63
2018-06-10T07:40:26.812Z,849.38
2018-06-10T07:41:27.002Z,883.13
2018-06-10T07:42:27.209Z,922.50
2018-06-10T07:43:27.416Z,945.00
2018-06-10T07:44:27.626Z,973.13
2018-06-10T07:45:27.828Z,984.38
2018-06-10T07:46:28.050Z,995.63
2018-06-10T07:47:28.253Z,1001.25
2018-06-10T07:48:28.513Z,1018.13
2018-06-10T07:49:28.662Z,1035.00
2018-06-10T07:50:28.848Z,1063.13
2018-06-10T07:51:29.065Z,1102.50
2018-06-10T07:52:29.265Z,1153.13
2018-06-10T07:53:29.468Z,1215.00
2018-06-10T07:54:29.676Z,1288.13
2018-06-10T07:55:29.889Z,1355.63
2018-06-10T07:56:30.106Z,1524.38
2018-06-10T07:57:30.310Z,1524.38
2018-06-10T07:58:30.526Z,1417.50
2018-06-10T07:59:30.745Z,1282.50
2018-06-10T08:00:30.956Z,1237.50
2018-06-10T08:01:31.177Z,1203.75
2018-06-10T08:02:31.400Z,1192.50
2018-06-10T08:03:31.616Z,1440.00
2018-06-10T08:04:31.831Z,1400.63
2018-06-10T08:05:32.054Z,1141.88
2018-06-10T08:06:32.245Z,956.25
2018-06-10T08:07:32.456Z,832.50
2018-06-10T08:08:32.670Z,736.88
2018-06-10T08:09:32.876Z,652.50
2018-06-10T08:10:33.094Z,568.13
2018-06-10T08:11:33.302Z,472.50
2018-06-10T08:12:33.495Z,388.13
2018-06-10T08:13:33.709Z,320.63
2018-06-10T08:14:33.934Z,264.38
2018-06-10T08:17:05.780Z,202.50
2018-06-10T08:18:06.044Z,185.63
2018-06-10T08:19:06.138Z,180.00
2018-06-10T08:20:06.337Z,174.38
2018-06-10T08:21:06.542Z,174.38
2018-06-10T08:22:06.762Z,174.38
2018-06-10T08:23:06.974Z,180.00
2018-06-10T08:24:07.170Z,185.63
2018-06-10T08:25:07.362Z,185.63
2018-06-10T08:26:07.574Z,191.25
2018-06-10T08:27:07.793Z,196.88
2018-06-10T08:28:08.005Z,202.50
2018-06-10T08:29:08.211Z,213.75
2018-06-10T08:30:08.413Z,219.38
2018-06-10T08:31:08.613Z,225.00
2018-06-10T08:32:08.827Z,230.63
2018-06-10T08:33:09.037Z,236.25
2018-06-10T08:34:09.248Z,241.88
2018-06-10T08:35:09.462Z,241.88
2018-06-10T08:36:09.670Z,247.50
2018-06-10T08:37:09.836Z,253.13
2018-06-10T08:38:10.045Z,258.75
2018-06-10T08:39:10.257Z,258.75
2018-06-10T08:40:10.462Z,264.38
2018-06-10T08:41:10.664Z,270.00
2018-06-10T08:42:10.884Z,281.25
2018-06-10T08:43:11.137Z,286.88
2018-06-10T08:44:11.379Z,298.13
2018-06-10T08:45:11.542Z,309.38
2018-06-10T08:46:11.761Z,315.00
2018-06-10T08:47:11.960Z,326.25
2018-06-10T08:48:12.175Z,331.88
2018-06-10T08:49:12.370Z,348.75
2018-06-10T08:50:12.587Z,360.00
2018-06-10T08:51:12.805Z,365.63
2018-06-10T08:52:13.002Z,376.88
2018-06-10T08:53:13.224Z,388.13
2018-06-10T08:54:13.434Z,399.38
2018-06-10T08:55:13.630Z,405.00
2018-06-10T08:56:13.816Z,421.88
2018-06-10T08:57:14.020Z,444.38
2018-06-10T08:58:14.219Z,461.25
2018-06-10T08:59:14.438Z,483.75
2018-06-10T09:00:14.636Z,506.25
2018-06-10T09:01:14.855Z,540.00
2018-06-10T09:02:15.075Z,579.38
2018-06-10T09:03:15.296Z,618.75
2018-06-10T09:04:15.502Z,663.75
2018-06-10T09:05:15.705Z,708.75
2018-06-10T09:06:15.915Z,753.75
2018-06-10T09:07:16.129Z,793.13
2018-06-10T09:08:16.347Z,832.50
2018-06-10T09:09:16.544Z,871.88
2018-06-10T09:10:16.742Z,905.63
2018-06-10T09:11:16.958Z,950.63
2018-06-10T09:12:17.169Z,978.75
2018-06-10T09:13:17.368Z,995.63
2018-06-10T09:14:17.579Z,995.63
2018-06-10T09:15:17.774Z,973.13
2018-06-10T09:17:49.603Z,905.63
2018-06-10T09:18:49.790Z,888.75
2018-06-10T09:19:50.007Z,866.25
2018-06-10T09:20:50.215Z,849.38
2018-06-10T09:21:50.419Z,843.75
2018-06-10T09:22:50.637Z,838.13
2018-06-10T09:23:50.846Z,838.13
2018-06-10T09:24:51.063Z,838.13
2018-06-10T09:25:51.248Z,843.75
2018-06-10T09:26:51.456Z,855.00
2018-06-10T09:27:51.668Z,877.50
2018-06-10T09:28:51.889Z,905.63
2018-06-10T09:29:52.094Z,916.88
2018-06-10T09:30:52.304Z,933.75
2018-06-10T09:31:52.528Z,1006.88
2018-06-10T09:32:52.731Z,1080.00
2018-06-10T09:33:52.924Z,1051.88
2018-06-10T09:34:53.136Z,1057.50
2018-06-10T09:35:53.352Z,1057.50
2018-06-10T09:36:53.554Z,1057.50
2018-06-10T09:37:53.757Z,1051.88
2018-06-10T09:38:53.993Z,1040.63
2018-06-10T09:39:54.203Z,1035.00
2018-06-10T09:40:54.398Z,1035.00
2018-06-10T09:41:54.600Z,1035.00
2018-06-10T09:42:54.818Z,1057.50
2018-06-10T09:43:55.037Z,1091.25
2018-06-10T09:44:55.239Z,1141.88
2018-06-10T09:45:55.457Z,1209.38
2018-06-10T09:46:55.647Z,1288.13
2018-06-10T09:47:55.859Z,1400.63
2018-06-10T09:48:56.056Z,1771.88
2018-06-10T09:49:56.324Z,1580.63
2018-06-10T09:50:56.492Z,1687.50
2018-06-10T09:51:56.682Z,1923.75
2018-06-10T09:52:56.896Z,2295.00
2018-06-10T09:53:57.121Z,2261.25
2018-06-10T09:54:57.328Z,1918.13
2018-06-10T09:55:57.536Z,1935.00
2018-06-10T09:56:57.731Z,1957.50
2018-06-10T09:57:57.922Z,2053.13
2018-06-10T09:58:58.151Z,2148.75
2018-06-10T09:59:58.360Z,2188.13
2018-06-10T10:00:58.562Z,2778.75
2018-06-10T10:01:58.770Z,3813.75
2018-06-10T10:02:58.967Z,2671.88
2018-06-10T10:03:59.183Z,2295.00
2018-06-10T10:04:59.407Z,2300.63
2018-06-10T10:05:59.618Z,2345.63
2018-06-10T10:06:59.827Z,2334.38
2018-06-10T10:08:00.040Z,2356.88
2018-06-10T10:09:00.237Z,2401.88
2018-06-10T10:10:00.441Z,2233.13
2018-06-10T10:11:00.646Z,2328.75
2018-06-10T10:12:00.844Z,2126.25
2018-06-10T10:13:01.066Z,2041.88
2018-06-10T10:14:01.288Z,2070.00
2018-06-10T10:15:01.564Z,2272.50
2018-06-10T10:17:33.838Z,3313.13
2018-06-10T10:18:33.785Z,2227.50
2018-06-10T10:19:33.996Z,2030.63
2018-06-10T10:20:34.205Z,2092.50
2018-06-10T10:21:34.421Z,2171.25
2018-06-10T10:22:34.633Z,2497.50
2018-06-10T10:23:34.850Z,2604.38
2018-06-10T10:24:35.074Z,2328.75
2018-06-10T10:25:35.303Z,2086.88
2018-06-10T10:26:35.466Z,1946.25
2018-06-10T10:29:07.602Z,2165.63
2018-06-10T10:30:07.764Z,2030.63
2018-06-10T10:31:07.964Z,1951.88
2018-06-10T10:32:08.180Z,1935.00
2018-06-10T10:33:08.373Z,1918.13
2018-06-10T10:34:08.588Z,1991.25
2018-06-10T10:35:08.782Z,2216.25
2018-06-10T10:36:08.996Z,2548.13
2018-06-10T10:37:09.220Z,2745.00
2018-06-10T10:38:09.457Z,2823.75
2018-06-10T10:39:09.663Z,2649.38
2018-06-10T10:40:09.883Z,2818.13
2018-06-10T10:41:10.071Z,2829.38
2018-06-10T10:42:10.272Z,2761.88
2018-06-10T10:43:10.463Z,2677.50
2018-06-10T10:44:10.658Z,2615.63
2018-06-10T10:45:10.878Z,2570.63
2018-06-10T10:46:11.099Z,2441.25
2018-06-10T10:47:11.319Z,2486.25
2018-06-10T10:48:11.520Z,2435.63
2018-06-10T10:49:11.754Z,2047.50
2018-06-10T10:50:11.949Z,1878.75
2018-06-10T10:51:12.166Z,1923.75
2018-06-10T10:52:12.354Z,1946.25
2018-06-10T10:53:12.571Z,1918.13
2018-06-10T10:54:12.773Z,1794.38
2018-06-10T10:55:12.973Z,1687.50
2018-06-10T10:56:13.187Z,1693.13
2018-06-10T10:57:13.401Z,1856.25
2018-06-10T10:58:13.612Z,2171.25
2018-06-10T10:59:13.813Z,2075.63
2018-06-10T11:00:14.024Z,2131.88
2018-06-10T11:01:14.222Z,1985.63
2018-06-10T11:02:14.451Z,1980.00
2018-06-10T11:03:14.658Z,1980.00
2018-06-10T11:04:14.889Z,1760.63
2018-06-10T11:05:15.103Z,1698.75
2018-06-10T11:06:15.297Z,1693.13
2018-06-10T11:07:15.515Z,1732.50
2018-06-10T11:08:15.802Z,1895.63
2018-06-10T11:09:15.946Z,1850.63
2018-06-10T11:10:16.168Z,1861.88
2018-06-10T11:11:16.378Z,1676.25
2018-06-10T11:12:16.597Z,1603.13
2018-06-10T11:13:16.804Z,1569.38
2018-06-10T11:14:17.024Z,1811.25
2018-06-10T11:15:17.227Z,1968.75
2018-06-10T11:16:17.478Z,1895.63
2018-06-10T11:17:17.685Z,1816.88
2018-06-10T11:18:17.883Z,1861.88
2018-06-10T11:19:18.084Z,1738.13
2018-06-10T11:20:18.335Z,1603.13
2018-06-10T11:21:18.521Z,1569.38
2018-06-10T11:22:18.723Z,1507.50
2018-06-10T11:23:18.940Z,1513.13
2018-06-10T11:24:19.169Z,1479.38
2018-06-10T11:25:19.379Z,1648.13
2018-06-10T11:26:19.597Z,1648.13
2018-06-10T11:27:19.856Z,1620.00
2018-06-10T11:28:20.022Z,1563.75
2018-06-10T11:29:20.250Z,1552.50
2018-06-10T11:30:20.469Z,1524.38
2018-06-10T11:31:20.687Z,1586.25
2018-06-10T11:32:20.910Z,1743.75
2018-06-10T11:33:21.137Z,1575.00
2018-06-10T11:34:21.361Z,1653.75
2018-06-10T11:35:21.546Z,1766.25
2018-06-10T11:36:21.760Z,1726.88
2018-06-10T11:37:21.962Z,1693.13
2018-06-10T11:38:22.183Z,1693.13
2018-06-10T11:39:22.384Z,1704.38
2018-06-10T11:40:22.578Z,1726.88
2018-06-10T11:41:22.770Z,1721.25
2018-06-10T11:42:23.093Z,1726.88
2018-06-10T11:43:23.179Z,1698.75
2018-06-10T11:44:23.377Z,1546.88
2018-06-10T11:45:23.587Z,1400.63
2018-06-10T11:46:23.814Z,1406.25
2018-06-10T11:47:24.032Z,1462.50
2018-06-10T11:48:24.251Z,1563.75
2018-06-10T11:49:24.469Z,1569.38
2018-06-10T11:50:24.685Z,1558.13
2018-06-10T11:51:24.894Z,1693.13
2018-06-10T11:52:25.119Z,1597.50
2018-06-10T11:53:25.325Z,1687.50
2018-06-10T11:54:25.551Z,1732.50
2018-06-10T11:56:57.952Z,1693.13
2018-06-10T11:57:57.899Z,1670.63
2018-06-10T11:58:58.122Z,1665.00
2018-06-10T11:59:58.341Z,1659.38
2018-06-10T12:00:58.551Z,1665.00
2018-06-10T12:01:58.801Z,1608.75
2018-06-10T12:02:58.977Z,1631.25
2018-06-10T12:03:59.183Z,1366.88
2018-06-10T12:04:59.376Z,1310.63
2018-06-10T12:05:59.569Z,1293.75
2018-06-10T12:06:59.788Z,1299.38
2018-06-10T12:08:00.100Z,1355.63
2018-06-10T12:09:00.182Z,1434.38
2018-06-10T12:10:00.389Z,1411.88
2018-06-10T12:11:00.616Z,1473.75
2018-06-10T12:12:00.828Z,1569.38
2018-06-10T12:13:01.045Z,1636.88
2018-06-10T12:14:01.220Z,1693.13
2018-06-10T12:15:01.413Z,1738.13
2018-06-10T12:16:01.636Z,1721.25
2018-06-10T12:17:01.834Z,1625.63
2018-06-10T12:18:02.053Z,1558.13
2018-06-10T12:19:02.254Z,1546.88
2018-06-10T12:20:02.458Z,1648.13
2018-06-10T12:21:02.655Z,1580.63
2018-06-10T12:22:02.848Z,1563.75
2018-06-10T12:23:03.063Z,1535.63
2018-06-10T12:24:03.290Z,1513.13
2018-06-10T12:25:03.515Z,1485.00
2018-06-10T12:26:03.736Z,1417.50
2018-06-10T12:27:03.958Z,1321.88
2018-06-10T12:28:04.169Z,1254.38
2018-06-10T12:29:04.369Z,1237.50
2018-06-10T12:30:04.592Z,1243.13
2018-06-10T12:31:04.802Z,1209.38
2018-06-10T12:32:05.019Z,1226.25
2018-06-10T12:33:05.193Z,1271.25
2018-06-10T12:34:05.487Z,1473.75
2018-06-10T12:35:05.579Z,1513.13
2018-06-10T12:36:05.780Z,1597.50
2018-06-10T12:37:06.009Z,1777.50
2018-06-10T12:38:06.213Z,1648.13
2018-06-10T12:39:06.431Z,1580.63
2018-06-10T12:41:38.548Z,1490.63
2018-06-10T12:42:38.732Z,1496.25
2018-06-10T12:43:38.927Z,1620.00
2018-06-10T12:44:39.143Z,1586.25
2018-06-10T12:45:39.333Z,1333.13
2018-06-10T12:46:39.527Z,1192.50
2018-06-10T12:47:39.905Z,1136.25
2018-06-10T12:48:39.974Z,1243.13
2018-06-10T12:49:40.174Z,1119.38
2018-06-10T12:50:40.386Z,1108.13
2018-06-10T12:51:40.582Z,1288.13
2018-06-10T12:52:40.768Z,1170.00
2018-06-10T12:53:40.969Z,1136.25
2018-06-10T12:54:41.200Z,1265.63
2018-06-10T12:55:41.380Z,1265.63
2018-06-10T12:56:41.597Z,1260.00
2018-06-10T12:57:41.806Z,1248.75
2018-06-10T12:58:42.025Z,1203.75
2018-06-10T12:59:42.259Z,1001.25
2018-06-10T13:00:42.457Z,1057.50
2018-06-10T13:01:42.684Z,1136.25
2018-06-10T13:02:42.900Z,950.63
2018-06-10T13:03:43.094Z,1113.75
2018-06-10T13:04:43.314Z,1085.63
2018-06-10T13:05:43.511Z,1029.38
2018-06-10T13:06:43.721Z,838.13
2018-06-10T13:07:43.924Z,793.13
2018-06-10T13:08:44.118Z,961.88